Ali Curung Tennant Creek, Australia
Current Conditions -  °F | °C
As of 12:00 PM on Friday 19 Dec 2014 (Local Time) from YTNK Reporting Station
Scattered Clouds Scattered Clouds  
Wind Chill: 95°   Ceiling: Unl
Heat Index: 96°   Visibility: 6mi
Dew Point: 63°   Wind: 6mph
Humidity: 34%   Direction: 60°ENE
Pressure: 29.91"   Gusts: NA
Location:  21.02°S, 134.4°E
Report Text: YTNK 190300Z AUTO 06005KT 9999 // SCT065 35/17 Q1013
Loading
Personal Weather Stations






























Interactive Weather Map New forecast layout! Learn more

10-Day Weather Forecast

Advertisements
Track Severe Weather on mobile